Denton, Kentucky
Current Conditions -  °F | °C
As of 5:58 AM on Friday 28 Nov 2014 (Local Time) from KHTS Reporting Station
Overcast Overcast  
Wind Chill: 22°   Ceiling: 2700
Heat Index: 27°   Visibility: 10mi
Dew Point: 21°   Wind: 5mph
Humidity: 78%   Direction: NA
Pressure: 30.38"   Gusts: NA
Location:  38.26°N, 82.86°W
Report Text: KHTS 281058Z VRB04KT 10SM BKN027 BKN033 OVC041 M03/M06 A3038 RMK AO2 T10281061
Loading
Personal Weather Stations






























Interactive Weather Map New forecast layout! Learn more

10-Day Weather Forecast

Advertisements
Track Severe Weather on mobile